Lu Huang Yuan Yu 195 — BCJW — position and weather

sailwx.info

Track history (hours):
 
Tides and Currents Weather Stations Pressure Air Temp Water Temp Dewpoint Dewpoint Depression Visibility Wind Speed Wind Dir Waves Ship Positions

Lu Huang Yuan Yu 195

Last reported at 2018-Mar-19 05:20 UTC. Time now 2018-Jun-17 22:20 UTC.
Position S 05°05' E 011°42'.
Warning: this ship's position is months out of date.

Length 50 m; draft 4.3 m.

Type: Ship. MMSI: 412331188.

Date/timePositionNaut miles runAvg speedWind from/ knotsBaromVisibWave heightAir tempDewpointWater temp
2018-Mar-19 05:20S 05°05' E 011°42'0 0.0
2018-Mar-19 05:00S 05°05' E 011°42'0 0.0
2018-Mar-19 04:27S 05°05' E 011°42'0 0.0
2018-Mar-19 03:59S 05°05' E 011°42'0 0.0
2018-Mar-19 02:43S 05°05' E 011°42'0 0.0
2018-Mar-19 02:27S 05°05' E 011°42'2 0.0
2018-Mar-17 11:45S 05°07' E 011°42'0 1.5
2018-Mar-17 11:27S 05°07' E 011°42'1 0.6
2018-Mar-17 09:25S 05°08' E 011°41'0 0.0
2018-Mar-17 07:04S 05°08' E 011°41'0 0.0
2018-Mar-17 06:10S 05°08' E 011°41'0 0.1
2018-Mar-17 06:00S 05°08' E 011°41'0 0.0
2018-Mar-17 05:28S 05°08' E 011°41'0 0.0
2018-Mar-17 04:59S 05°08' E 011°41'0 0.0
2018-Mar-17 04:29S 05°08' E 011°41'0 0.0
2018-Mar-17 03:52S 05°08' E 011°41'0 0.0
2018-Mar-17 03:30S 05°08' E 011°41'0 0.0
2018-Mar-17 02:53S 05°08' E 011°41'0 0.0
2018-Mar-17 02:28S 05°08' E 011°41'0 0.0
2018-Mar-17 02:00S 05°08' E 011°41'0 0.0
2018-Mar-17 01:29S 05°08' E 011°41'0 0.0
2018-Mar-17 00:50S 05°08' E 011°41'0 0.0
2018-Mar-16 20:18S 05°08' E 011°41'0 0.1
2018-Mar-16 20:00S 05°08' E 011°41'0 0.0
2018-Mar-16 18:22S 05°08' E 011°41'0 0.0
2018-Mar-16 18:01S 05°08' E 011°41'0 0.0
2018-Mar-16 17:30S 05°08' E 011°41'0 0.1
2018-Mar-16 16:57S 05°08' E 011°41'3 1.1
2018-Mar-16 14:26S 05°05' E 011°42'0 0.6
2018-Mar-16 13:55S 05°06' E 011°42'0 0.6
2018-Mar-16 13:13S 05°06' E 011°42'1 0.4
2018-Mar-16 10:12S 05°06' E 011°40'0 0.6
2018-Mar-16 10:00S 05°06' E 011°40'1 1.0
2018-Mar-16 09:28S 05°07' E 011°40'1 0.5
2018-Mar-16 07:51S 05°08' E 011°41'0 0.5
2018-Mar-16 07:28S 05°08' E 011°41'0 0.5
2018-Mar-16 06:38S 05°08' E 011°41'0 1.7
2018-Mar-16 06:28S 05°08' E 011°41'1 0.0
2018-Mar-15 06:19S 05°07' E 011°42'2 6.4
2018-Mar-15 06:00S 05°09' E 011°41'1 0.5
2018-Mar-15 03:58S 05°08' E 011°42'0 0.0
2018-Mar-15 02:55S 05°08' E 011°42'0 0.0
2018-Mar-15 02:11S 05°08' E 011°41'0 0.0
2018-Mar-14 20:40S 05°08' E 011°41'0 0.1
2018-Mar-14 20:22S 05°08' E 011°41'0 0.0
2018-Mar-14 19:54S 05°08' E 011°42'0 0.0
2018-Mar-14 18:34S 05°08' E 011°41'0 0.0
2018-Mar-14 18:16S 05°08' E 011°41'0 0.2
2018-Mar-14 17:49S 05°08' E 011°42'2 5.2
2018-Mar-14 17:30S 05°10' E 011°41'3 5.6
2018-Mar-14 16:59S 05°12' E 011°39'2 4.6
2018-Mar-14 16:30S 05°10' E 011°40'3 0.9
2018-Mar-14 13:44S 05°08' E 011°41'0 0.0
2018-Mar-14 13:30S 05°08' E 011°41'0 0.0
2018-Mar-14 12:58S 05°08' E 011°41'0 0.0
2018-Mar-14 10:15S 05°08' E 011°41'0 0.0
2018-Mar-14 09:55S 05°08' E 011°41'0 0.0
2018-Mar-14 09:18S 05°08' E 011°41'0 0.0
2018-Mar-14 08:44S 05°08' E 011°41'0 0.0
2018-Mar-14 03:00S 05°08' E 011°41'0 0.0
2018-Mar-14 02:23S 05°08' E 011°41'0 0.0
2018-Mar-14 01:15S 05°08' E 011°41'0 0.0
2018-Mar-13 23:53S 05°08' E 011°41'0 0.0
2018-Mar-13 23:23S 05°08' E 011°41'0 0.0
2018-Mar-13 20:31S 05°08' E 011°41'0 0.0
2018-Mar-13 19:53S 05°08' E 011°41'0 0.0
2018-Mar-13 19:28S 05°08' E 011°41'0 0.0
2018-Mar-13 18:25S 05°08' E 011°41'0 0.0
2018-Mar-13 17:52S 05°08' E 011°41'2 4.5
2018-Mar-13 17:19S 05°10' E 011°41'2 4.2
2018-Mar-13 16:51S 05°08' E 011°41'5 2.8
2018-Mar-13 15:12S 05°04' E 011°41'0 1.3
2018-Mar-13 14:58S 05°04' E 011°41'1 1.6
2018-Mar-13 14:27S 05°05' E 011°41'0 1.0
2018-Mar-13 13:57S 05°05' E 011°41'2 0.3
2018-Mar-13 06:58S 05°07' E 011°41'4 6.0
2018-Mar-13 06:20S 05°11' E 011°40'0 1.2
2018-Mar-13 06:00S 05°11' E 011°40'2 3.2
2018-Mar-13 05:26S 05°09' E 011°40'1 1.1
2018-Mar-13 04:58S 05°08' E 011°40'0 0.0
2018-Mar-13 04:27S 05°08' E 011°40'0 0.0
2018-Mar-13 03:59S 05°08' E 011°40'0 0.0
2018-Mar-13 02:07S 05°08' E 011°40'0 0.0
2018-Mar-13 02:00S 05°08' E 011°40'0 0.0
2018-Mar-13 01:15S 05°08' E 011°40'0 0.0
2018-Mar-13 00:52S 05°08' E 011°40'0 0.0
2018-Mar-13 00:21S 05°08' E 011°40'0 0.0
2018-Mar-12 23:57S 05°08' E 011°40'0 0.0
2018-Mar-12 23:28S 05°08' E 011°40'0 0.0
2018-Mar-12 23:00S 05°08' E 011°40'  
Track history (hours):
 
Tides and Currents Weather Stations Pressure Air Temp Water Temp Dewpoint Dewpoint Depression Visibility Wind Speed Wind Dir Waves Ship Positions

Lu Huang Yuan Yu 195

Last reported at 2018-Mar-19 05:20 UTC. Time now 2018-Jun-17 22:20 UTC.
Position S 05°05' E 011°42'.
Warning: this ship's position is months out of date.

Length 50 m; draft 4.3 m.

Type: Ship. MMSI: 412331188.

Date/timePositionNaut miles runAvg speedWind from/ knotsBaromVisibWave heightAir tempDewpointWater temp
2018-Mar-19 05:20S 05°05' E 011°42'0 0.0
2018-Mar-19 05:00S 05°05' E 011°42'0 0.0
2018-Mar-19 04:27S 05°05' E 011°42'0 0.0
2018-Mar-19 03:59S 05°05' E 011°42'0 0.0
2018-Mar-19 02:43S 05°05' E 011°42'0 0.0
2018-Mar-19 02:27S 05°05' E 011°42'2 0.0
2018-Mar-17 11:45S 05°07' E 011°42'0 1.5
2018-Mar-17 11:27S 05°07' E 011°42'1 0.6
2018-Mar-17 09:25S 05°08' E 011°41'0 0.0
2018-Mar-17 07:04S 05°08' E 011°41'0 0.0
2018-Mar-17 06:10S 05°08' E 011°41'0 0.1
2018-Mar-17 06:00S 05°08' E 011°41'0 0.0
2018-Mar-17 05:28S 05°08' E 011°41'0 0.0
2018-Mar-17 04:59S 05°08' E 011°41'0 0.0
2018-Mar-17 04:29S 05°08' E 011°41'0 0.0
2018-Mar-17 03:52S 05°08' E 011°41'0 0.0
2018-Mar-17 03:30S 05°08' E 011°41'0 0.0
2018-Mar-17 02:53S 05°08' E 011°41'0 0.0
2018-Mar-17 02:28S 05°08' E 011°41'0 0.0
2018-Mar-17 02:00S 05°08' E 011°41'0 0.0
2018-Mar-17 01:29S 05°08' E 011°41'0 0.0
2018-Mar-17 00:50S 05°08' E 011°41'0 0.0
2018-Mar-16 20:18S 05°08' E 011°41'0 0.1
2018-Mar-16 20:00S 05°08' E 011°41'0 0.0
2018-Mar-16 18:22S 05°08' E 011°41'0 0.0
2018-Mar-16 18:01S 05°08' E 011°41'0 0.0
2018-Mar-16 17:30S 05°08' E 011°41'0 0.1
2018-Mar-16 16:57S 05°08' E 011°41'3 1.1
2018-Mar-16 14:26S 05°05' E 011°42'0 0.6
2018-Mar-16 13:55S 05°06' E 011°42'0 0.6
2018-Mar-16 13:13S 05°06' E 011°42'1 0.4
2018-Mar-16 10:12S 05°06' E 011°40'0 0.6
2018-Mar-16 10:00S 05°06' E 011°40'1 1.0
2018-Mar-16 09:28S 05°07' E 011°40'1 0.5
2018-Mar-16 07:51S 05°08' E 011°41'0 0.5
2018-Mar-16 07:28S 05°08' E 011°41'0 0.5
2018-Mar-16 06:38S 05°08' E 011°41'0 1.7
2018-Mar-16 06:28S 05°08' E 011°41'1 0.0
2018-Mar-15 06:19S 05°07' E 011°42'2 6.4
2018-Mar-15 06:00S 05°09' E 011°41'1 0.5
2018-Mar-15 03:58S 05°08' E 011°42'0 0.0
2018-Mar-15 02:55S 05°08' E 011°42'0 0.0
2018-Mar-15 02:11S 05°08' E 011°41'0 0.0
2018-Mar-14 20:40S 05°08' E 011°41'0 0.1
2018-Mar-14 20:22S 05°08' E 011°41'0 0.0
2018-Mar-14 19:54S 05°08' E 011°42'0 0.0
2018-Mar-14 18:34S 05°08' E 011°41'0 0.0
2018-Mar-14 18:16S 05°08' E 011°41'0 0.2
2018-Mar-14 17:49S 05°08' E 011°42'2 5.2
2018-Mar-14 17:30S 05°10' E 011°41'3 5.6
2018-Mar-14 16:59S 05°12' E 011°39'2 4.6
2018-Mar-14 16:30S 05°10' E 011°40'3 0.9
2018-Mar-14 13:44S 05°08' E 011°41'0 0.0
2018-Mar-14 13:30S 05°08' E 011°41'0 0.0
2018-Mar-14 12:58S 05°08' E 011°41'0 0.0
2018-Mar-14 10:15S 05°08' E 011°41'0 0.0
2018-Mar-14 09:55S 05°08' E 011°41'0 0.0
2018-Mar-14 09:18S 05°08' E 011°41'0 0.0
2018-Mar-14 08:44S 05°08' E 011°41'0 0.0
2018-Mar-14 03:00S 05°08' E 011°41'0 0.0
2018-Mar-14 02:23S 05°08' E 011°41'0 0.0
2018-Mar-14 01:15S 05°08' E 011°41'0 0.0
2018-Mar-13 23:53S 05°08' E 011°41'0 0.0
2018-Mar-13 23:23S 05°08' E 011°41'0 0.0
2018-Mar-13 20:31S 05°08' E 011°41'0 0.0
2018-Mar-13 19:53S 05°08' E 011°41'0 0.0
2018-Mar-13 19:28S 05°08' E 011°41'0 0.0
2018-Mar-13 18:25S 05°08' E 011°41'0 0.0
2018-Mar-13 17:52S 05°08' E 011°41'2 4.5
2018-Mar-13 17:19S 05°10' E 011°41'2 4.2
2018-Mar-13 16:51S 05°08' E 011°41'5 2.8
2018-Mar-13 15:12S 05°04' E 011°41'0 1.3
2018-Mar-13 14:58S 05°04' E 011°41'1 1.6
2018-Mar-13 14:27S 05°05' E 011°41'0 1.0
2018-Mar-13 13:57S 05°05' E 011°41'2 0.3
2018-Mar-13 06:58S 05°07' E 011°41'4 6.0
2018-Mar-13 06:20S 05°11' E 011°40'0 1.2
2018-Mar-13 06:00S 05°11' E 011°40'2 3.2
2018-Mar-13 05:26S 05°09' E 011°40'1 1.1
2018-Mar-13 04:58S 05°08' E 011°40'0 0.0
2018-Mar-13 04:27S 05°08' E 011°40'0 0.0
2018-Mar-13 03:59S 05°08' E 011°40'0 0.0
2018-Mar-13 02:07S 05°08' E 011°40'0 0.0
2018-Mar-13 02:00S 05°08' E 011°40'0 0.0
2018-Mar-13 01:15S 05°08' E 011°40'0 0.0
2018-Mar-13 00:52S 05°08' E 011°40'0 0.0
2018-Mar-13 00:21S 05°08' E 011°40'0 0.0
2018-Mar-12 23:57S 05°08' E 011°40'0 0.0
2018-Mar-12 23:28S 05°08' E 011°40'0 0.0
2018-Mar-12 23:00S 05°08' E 011°40'  

Dump ship's entire track history